Main page
METAR-TAF:

METAR-TAF

Airports :

RAF Coningsby

Coningsby, England

latitude: 53-05N, longitude: 000-10W, elevation: 7 m

Current weather observation

The report was made 54 minutes ago, at 03:50 UTC
Wind 6 kt from the West/Northwest
Temperature 16°C
Humidity 77%
Pressure 1014 hPa
Visibility 10 km or more
no clouds below 1500 m and no cumulonimbus

METAR: EGXC 220350Z 29006KT CAVOK 16/12 Q1014 BLU

Time: 05:44 (04:44 UTC)

Forecast

The report was made 3 hours and 27 minutes ago, at 01:17 UTC
Forecast valid from 22 at 03 UTC to 22 at 21 UTC
Wind 4 kt from the West/Northwest
Visibility 10 km or more
Few clouds at a height of 4000 ft
Probability 30% :
Temporary
from 22 at 08 UTC to 22 at 11 UTC
Scattered clouds at a height of 2000 ft

TAF: EGXC 220117Z 2203/2221 29004KT 9999 FEW040 PROB30 TEMPO 2208/2211 SCT020

Weather observations and forecasts of more than 4000 airports (METAR and TAF reports).

The available stations are represented by yellow and red dots on the map.

Hover mouse over dot to see the name of the station.

Then click to see weather observations and forecasts.

To change the map : click on the green buttons with a black cross to zoom in, on the green button with a dash to zoom out, or on the green arrows for adjacent maps.


METAR-TAF: